Time;durP1;ratioP1;P1;durP2;ratioP2;P2;SDS_P1;SDS_P2;PMS_P1;PMS_P2;Temp;Humidity;BMP_temperature;BMP_pressure;BME280_temperature;BME280_humidity;BME280_pressure;Samples;Min_cycle;Max_cycle;Signal;HPM_P1;HPM_P2
2023/06/13 00:02:14;;;;;;;5.68;3.13;;;22.90;68.00;;;;;;6184688;23;20021;-82
2023/06/13 00:04:43;;;;;;;6.15;3.13;;;22.90;67.90;;;;;;6157605;23;20020;-82
2023/06/13 00:07:09;;;;;;;5.78;3.60;;;22.80;68.00;;;;;;6158768;23;20083;-82
2023/06/13 00:09:35;;;;;;;8.93;3.53;;;22.80;67.80;;;;;;6185328;23;20770;-82
2023/06/13 00:12:02;;;;;;;6.47;2.95;;;22.70;68.00;;;;;;6184239;23;20028;-83
2023/06/13 00:14:28;;;;;;;5.15;3.22;;;22.70;68.30;;;;;;6159319;23;20009;-82
2023/06/13 00:16:54;;;;;;;5.78;3.28;;;22.70;68.50;;;;;;6158139;23;20025;-82
2023/06/13 00:19:21;;;;;;;6.15;3.20;;;22.70;68.50;;;;;;6158476;23;20092;-82
2023/06/13 00:21:47;;;;;;;7.22;3.30;;;22.60;68.50;;;;;;6158384;23;20454;-82
2023/06/13 00:24:13;;;;;;;8.15;3.17;;;22.60;68.60;;;;;;6158174;23;20469;-82
2023/06/13 00:26:39;;;;;;;5.85;3.55;;;22.50;68.30;;;;;;6184437;23;20028;-82
2023/06/13 00:29:04;;;;;;;5.28;3.10;;;22.50;68.10;;;;;;6158654;23;20331;-83
2023/06/13 00:31:30;;;;;;;6.13;3.30;;;22.40;68.10;;;;;;6157859;23;20032;-82
2023/06/13 00:33:56;;;;;;;5.15;3.13;;;22.40;68.00;;;;;;6158128;23;20100;-82
2023/06/13 00:36:24;;;;;;;5.95;3.42;;;22.30;68.10;;;;;;6185033;23;20457;-82
2023/06/13 00:38:54;;;;;;;5.47;3.10;;;22.20;67.70;;;;;;6184388;23;20025;-82
2023/06/13 00:41:20;;;;;;;5.05;3.20;;;22.20;68.20;;;;;;6159111;23;20052;-82
2023/06/13 00:43:45;;;;;;;7.28;3.53;;;22.20;68.40;;;;;;6185471;23;20013;-82
2023/06/13 00:46:17;;;;;;;5.90;3.25;;;22.10;68.30;;;;;;6185402;23;20017;-83
2023/06/13 00:48:44;;;;;;;7.55;3.40;;;22.10;68.70;;;;;;6186199;23;20441;-83
2023/06/13 00:51:14;;;;;;;5.85;3.42;;;22.00;68.70;;;;;;6186258;23;20084;-83
2023/06/13 00:53:41;;;;;;;6.25;3.30;;;21.90;68.60;;;;;;6158442;23;20051;-82
2023/06/13 00:56:07;;;;;;;6.28;3.80;;;21.90;69.00;;;;;;6185452;23;20020;-83
2023/06/13 00:58:34;;;;;;;5.88;3.17;;;21.90;68.70;;;;;;6159547;23;20017;-82
2023/06/13 01:01:02;;;;;;;7.25;3.10;;;21.80;68.30;;;;;;6158443;23;20013;-82
2023/06/13 01:03:29;;;;;;;7.03;3.40;;;21.80;68.40;;;;;;6159587;23;20099;-82
2023/06/13 01:05:55;;;;;;;5.80;3.60;;;21.70;68.30;;;;;;6159165;23;20013;-82
2023/06/13 01:08:24;;;;;;;6.28;3.35;;;21.70;68.70;;;;;;6158957;23;20056;-82
2023/06/13 01:10:59;;;;;;;7.90;3.78;;;21.60;68.30;;;;;;6185894;23;20017;-82
2023/06/13 01:14:01;;;;;;;6.15;3.30;;;21.50;68.30;;;;;;6158673;23;20028;-83
2023/06/13 01:16:33;;;;;;;7.80;3.50;;;21.50;68.20;;;;;;6180361;23;20017;-82
2023/06/13 01:19:03;;;;;;;7.30;3.53;;;21.40;68.80;;;;;;6186004;23;20017;-82
2023/06/13 01:21:32;;;;;;;7.82;3.30;;;21.40;68.90;;;;;;6158697;23;20013;-82
2023/06/13 01:24:12;;;;;;;5.65;3.55;;;21.30;68.90;;;;;;6185596;23;20013;-82
2023/06/13 01:26:51;;;;;;;5.10;3.25;;;21.30;69.00;;;;;;6184930;23;20017;-83
2023/06/13 01:29:18;;;;;;;6.35;3.40;;;21.20;69.00;;;;;;6158694;23;20394;-82
2023/06/13 01:31:46;;;;;;;7.38;3.55;;;21.20;69.20;;;;;;6185645;23;20084;-83
2023/06/13 01:34:13;;;;;;;5.28;3.47;;;21.20;69.40;;;;;;6159479;23;20096;-83
2023/06/13 01:36:39;;;;;;;7.13;3.63;;;21.20;69.50;;;;;;6184665;23;20009;-82
2023/06/13 01:39:05;;;;;;;6.55;3.40;;;21.20;69.50;;;;;;6158439;23;20048;-82
2023/06/13 01:41:30;;;;;;;7.45;3.50;;;21.20;69.70;;;;;;6184626;23;20013;-82
2023/06/13 01:43:56;;;;;;;6.13;3.55;;;21.20;69.60;;;;;;6185765;23;20095;-83
2023/06/13 01:46:29;;;;;;;5.88;3.35;;;21.20;69.40;;;;;;6159123;23;20013;-83
2023/06/13 01:49:24;;;;;;;5.18;3.30;;;21.10;69.00;;;;;;6157963;23;20013;-82
2023/06/13 01:52:02;;;;;;;7.18;3.63;;;21.10;68.80;;;;;;6147766;23;20013;-82
2023/06/13 01:54:31;;;;;;;8.13;3.63;;;21.00;69.20;;;;;;6159442;23;20017;-82
2023/06/13 01:57:02;;;;;;;6.10;3.55;;;21.10;69.60;;;;;;6157736;23;20017;-82
2023/06/13 01:59:29;;;;;;;7.43;3.80;;;21.00;69.50;;;;;;6159273;23;20043;-82
2023/06/13 02:01:56;;;;;;;5.70;3.63;;;21.00;69.70;;;;;;6157933;23;20048;-83
2023/06/13 02:04:22;;;;;;;8.05;3.60;;;20.90;69.70;;;;;;6158356;23;20024;-82
2023/06/13 02:06:48;;;;;;;6.45;3.50;;;20.90;69.90;;;;;;6158779;23;20013;-82
2023/06/13 02:09:13;;;;;;;5.55;3.60;;;20.80;70.00;;;;;;6158626;23;20341;-82
2023/06/13 02:11:39;;;;;;;8.75;3.60;;;20.80;70.10;;;;;;6157475;23;20118;-82
2023/06/13 02:14:06;;;;;;;5.88;3.42;;;20.80;70.20;;;;;;6159306;23;20099;-82
2023/06/13 02:16:32;;;;;;;5.85;3.30;;;20.70;70.20;;;;;;6158724;23;20013;-82
2023/06/13 02:19:01;;;;;;;5.68;3.60;;;20.70;69.90;;;;;;6184879;23;20019;-82
2023/06/13 02:21:29;;;;;;;8.40;3.60;;;20.60;71.20;;;;;;6158924;23;20019;-82
2023/06/13 02:23:54;;;;;;;6.05;3.60;;;20.60;70.20;;;;;;6157371;23;20032;-82
2023/06/13 02:26:23;;;;;;;6.68;3.50;;;20.50;70.40;;;;;;6184531;23;20009;-82
2023/06/13 02:28:48;;;;;;;5.95;3.58;;;20.50;71.10;;;;;;6158639;23;20014;-82
2023/06/13 02:31:15;;;;;;;5.45;3.65;;;20.50;71.00;;;;;;6157641;23;20020;-82
2023/06/13 02:33:41;;;;;;;6.85;3.40;;;20.40;71.20;;;;;;6158429;23;20021;-82
2023/06/13 02:36:07;;;;;;;5.45;3.40;;;20.40;71.20;;;;;;6158903;23;20009;-82
2023/06/13 02:38:33;;;;;;;6.55;3.78;;;20.30;71.20;;;;;;6157755;23;20091;-83
2023/06/13 02:40:59;;;;;;;5.47;3.65;;;20.30;71.20;;;;;;6185398;23;20017;-84
2023/06/13 02:43:25;;;;;;;7.28;3.50;;;20.30;71.50;;;;;;6185482;23;20088;-83
2023/06/13 02:45:51;;;;;;;7.28;3.78;;;20.20;71.30;;;;;;6157196;23;20059;-83
2023/06/13 02:48:17;;;;;;;6.00;3.53;;;20.20;71.10;;;;;;6185227;23;20017;-83
2023/06/13 02:50:43;;;;;;;5.68;3.72;;;20.20;71.30;;;;;;6158561;23;20027;-83
2023/06/13 02:53:08;;;;;;;6.18;3.50;;;20.10;71.40;;;;;;6184510;23;20024;-83
2023/06/13 02:55:34;;;;;;;9.00;3.65;;;20.10;71.40;;;;;;6185029;23;20028;-83
2023/06/13 02:58:00;;;;;;;7.15;3.33;;;20.00;71.60;;;;;;6158697;23;20017;-83
2023/06/13 03:00:25;;;;;;;8.85;3.70;;;20.00;71.90;;;;;;6157689;23;20048;-83
2023/06/13 03:02:51;;;;;;;6.93;3.40;;;19.90;71.70;;;;;;6158230;23;20021;-83
2023/06/13 03:05:17;;;;;;;5.35;3.05;;;19.90;72.00;;;;;;6185505;23;20020;-83
2023/06/13 03:07:46;;;;;;;7.10;3.50;;;19.80;71.80;;;;;;6157213;23;20048;-83
2023/06/13 03:10:13;;;;;;;6.20;3.85;;;19.80;72.00;;;;;;6185091;23;20472;-83
2023/06/13 03:12:39;;;;;;;5.93;3.13;;;19.70;71.90;;;;;;6157933;23;20017;-83
2023/06/13 03:15:06;;;;;;;5.65;3.60;;;19.70;72.20;;;;;;6184395;23;20088;-83
2023/06/13 03:17:32;;;;;;;6.93;3.72;;;19.60;72.10;;;;;;6185342;23;20068;-84
2023/06/13 03:19:58;;;;;;;6.72;3.67;;;19.60;72.10;;;;;;6158040;23;20092;-83
2023/06/13 03:22:24;;;;;;;7.03;3.75;;;19.60;72.00;;;;;;6158462;23;20129;-83
2023/06/13 03:24:50;;;;;;;6.97;3.78;;;19.50;72.20;;;;;;6158449;23;20017;-83
2023/06/13 03:27:15;;;;;;;6.45;3.83;;;19.40;72.50;;;;;;6183639;23;20780;-83
2023/06/13 03:29:42;;;;;;;6.45;3.65;;;19.40;72.00;;;;;;6184665;23;20032;-83
2023/06/13 03:32:11;;;;;;;6.85;3.30;;;19.40;72.00;;;;;;6184558;23;20569;-83
2023/06/13 03:34:38;;;;;;;7.78;3.50;;;19.30;72.10;;;;;;6184098;23;20507;-83
2023/06/13 03:37:08;;;;;;;7.05;3.80;;;19.30;72.40;;;;;;6185036;23;20017;-83
2023/06/13 03:39:34;;;;;;;7.15;3.72;;;19.20;72.60;;;;;;6184639;23;20017;-83
2023/06/13 03:42:01;;;;;;;5.82;3.35;;;19.20;72.10;;;;;;6157375;23;20009;-83
2023/06/13 03:44:28;;;;;;;6.30;3.40;;;19.20;73.10;;;;;;6185404;23;20049;-83
2023/06/13 03:46:58;;;;;;;6.60;3.35;;;19.10;73.30;;;;;;6183914;23;20091;-83
2023/06/13 03:49:24;;;;;;;6.72;3.25;;;19.10;72.60;;;;;;6184094;23;20084;-82
2023/06/13 03:51:53;;;;;;;9.95;3.60;;;19.10;73.00;;;;;;6158726;23;20013;-83
2023/06/13 03:54:21;;;;;;;6.47;3.60;;;19.00;73.60;;;;;;6158707;23;20063;-83
2023/06/13 03:56:47;;;;;;;6.20;3.25;;;19.00;73.20;;;;;;6157941;23;20072;-82
2023/06/13 03:59:13;;;;;;;7.20;3.72;;;19.00;73.30;;;;;;6158428;23;20095;-82
2023/06/13 04:01:41;;;;;;;7.70;3.80;;;18.90;72.10;;;;;;6158263;23;20049;-82
2023/06/13 04:04:07;;;;;;;7.60;3.67;;;18.90;72.20;;;;;;6186439;23;20017;-82
2023/06/13 04:06:33;;;;;;;6.32;3.70;;;18.90;73.20;;;;;;6186292;23;20024;-82
2023/06/13 04:08:58;;;;;;;5.70;3.42;;;18.80;73.50;;;;;;6160172;23;20013;-83
2023/06/13 04:11:24;;;;;;;8.07;3.60;;;18.80;73.90;;;;;;6187601;23;20322;-83
2023/06/13 04:13:50;;;;;;;5.90;3.40;;;18.80;74.30;;;;;;6188312;23;20044;-83
2023/06/13 04:16:16;;;;;;;5.88;3.15;;;18.80;74.20;;;;;;6160010;23;20063;-83
2023/06/13 04:18:42;;;;;;;6.65;3.38;;;18.70;73.80;;;;;;6187392;23;20091;-83
2023/06/13 04:21:08;;;;;;;5.95;3.22;;;18.70;73.80;;;;;;6160758;23;20009;-82
2023/06/13 04:23:33;;;;;;;6.68;3.70;;;18.70;74.00;;;;;;6161183;23;20024;-83
2023/06/13 04:26:03;;;;;;;7.30;3.78;;;18.70;74.20;;;;;;6160993;23;20315;-82
2023/06/13 04:28:33;;;;;;;7.00;3.50;;;18.60;74.40;;;;;;6188178;23;20453;-82
2023/06/13 04:31:00;;;;;;;6.53;3.45;;;18.60;74.50;;;;;;6160749;23;20457;-82
2023/06/13 04:33:26;;;;;;;6.40;3.58;;;18.60;73.90;;;;;;6187794;23;20043;-82
2023/06/13 04:35:53;;;;;;;5.78;3.28;;;18.60;73.60;;;;;;6186874;23;20024;-83
2023/06/13 04:38:21;;;;;;;5.88;3.20;;;18.60;74.00;;;;;;6186622;23;20092;-82
2023/06/13 04:40:48;;;;;;;6.35;3.38;;;18.50;73.60;;;;;;6186923;23;20334;-82
2023/06/13 04:43:17;;;;;;;7.20;3.97;;;18.50;74.10;;;;;;6160993;23;20479;-82
2023/06/13 04:45:43;;;;;;;6.82;3.45;;;18.50;73.60;;;;;;6158886;23;20013;-82
2023/06/13 04:48:10;;;;;;;7.05;3.53;;;18.50;72.90;;;;;;6160249;23;20021;-82
2023/06/13 04:50:37;;;;;;;6.50;3.65;;;18.50;73.90;;;;;;6159312;23;20013;-82
2023/06/13 04:53:07;;;;;;;7.40;3.70;;;18.50;74.20;;;;;;6158627;23;20020;-82
2023/06/13 04:55:35;;;;;;;6.28;3.58;;;18.50;73.90;;;;;;6159196;23;20386;-82
2023/06/13 04:58:01;;;;;;;5.68;3.50;;;18.50;74.40;;;;;;6159915;23;20017;-82
2023/06/13 05:00:26;;;;;;;9.35;3.50;;;18.50;73.80;;;;;;6185856;23;20021;-81
2023/06/13 05:02:55;;;;;;;8.00;3.67;;;18.50;73.40;;;;;;6185340;23;20021;-81
2023/06/13 05:05:22;;;;;;;8.13;3.53;;;18.50;74.00;;;;;;6159988;23;20400;-81
2023/06/13 05:07:55;;;;;;;5.68;3.35;;;18.40;74.00;;;;;;6159605;23;20076;-81
2023/06/13 05:10:24;;;;;;;7.50;3.17;;;18.40;74.10;;;;;;6159958;23;20020;-90
2023/06/13 05:13:32;;;;;;;5.82;3.33;;;18.40;73.70;;;;;;6170161;23;20349;-88
2023/06/13 05:16:29;;;;;;;7.40;3.58;;;18.40;73.40;;;;;;6138198;23;20056;-90
2023/06/13 05:19:00;;;;;;;7.05;3.20;;;18.40;74.80;;;;;;6159966;23;20024;-89
2023/06/13 05:21:31;;;;;;;8.50;3.40;;;18.30;74.00;;;;;;6186062;23;20020;-82
2023/06/13 05:23:58;;;;;;;7.68;3.53;;;18.40;74.50;;;;;;6158943;23;20017;-81
2023/06/13 05:26:24;;;;;;;5.93;3.42;;;18.30;73.70;;;;;;6186636;23;20092;-80
2023/06/13 05:28:50;;;;;;;7.70;3.60;;;18.30;74.20;;;;;;6157723;23;20390;-78
2023/06/13 05:31:15;;;;;;;7.05;3.38;;;18.30;74.50;;;;;;6185998;23;20021;-80
2023/06/13 05:33:41;;;;;;;6.35;3.55;;;18.40;74.70;;;;;;6159112;23;20433;-80
2023/06/13 05:36:07;;;;;;;6.55;3.30;;;18.30;75.40;;;;;;6161954;23;20009;-80
2023/06/13 05:38:32;;;;;;;6.07;3.38;;;18.30;75.50;;;;;;6160395;23;20031;-80
2023/06/13 05:40:58;;;;;;;6.05;3.55;;;18.30;75.40;;;;;;6184843;23;20337;-80
2023/06/13 05:43:24;;;;;;;5.90;3.08;;;18.40;75.50;;;;;;6185509;23;20013;-81
2023/06/13 05:45:49;;;;;;;8.45;3.40;;;18.40;76.30;;;;;;6185732;23;20430;-81
2023/06/13 05:48:15;;;;;;;6.40;3.50;;;18.50;75.70;;;;;;6158816;23;20020;-81
2023/06/13 05:50:41;;;;;;;6.10;3.20;;;18.50;75.70;;;;;;6159177;23;20374;-80
2023/06/13 05:53:07;;;;;;;10.10;3.58;;;18.50;75.70;;;;;;6186412;23;20017;-80
2023/06/13 05:55:32;;;;;;;6.38;3.42;;;18.50;75.00;;;;;;6184575;23;20024;-81
2023/06/13 05:57:58;;;;;;;6.32;3.22;;;18.50;75.50;;;;;;6183519;23;20024;-80
2023/06/13 06:00:23;;;;;;;9.30;3.70;;;18.50;75.40;;;;;;6155299;23;20075;-80
2023/06/13 06:02:50;;;;;;;6.90;3.78;;;18.50;74.00;;;;;;6157590;23;20021;-81
2023/06/13 06:05:16;;;;;;;5.63;3.50;;;18.60;74.30;;;;;;6159742;23;20331;-81
2023/06/13 06:07:43;;;;;;;5.43;3.20;;;18.60;75.00;;;;;;6185047;23;20113;-80
2023/06/13 06:10:10;;;;;;;7.57;3.90;;;18.60;74.30;;;;;;6183133;23;20381;-79
2023/06/13 06:12:35;;;;;;;6.20;3.58;;;18.60;73.40;;;;;;6185364;23;20106;-81
2023/06/13 06:15:02;;;;;;;5.57;3.70;;;18.60;73.40;;;;;;6158937;23;20104;-80
2023/06/13 06:17:27;;;;;;;7.65;3.50;;;18.70;73.00;;;;;;6157522;23;20013;-81
2023/06/13 06:19:53;;;;;;;5.97;3.30;;;18.70;72.80;;;;;;6184446;23;20374;-81
2023/06/13 06:22:19;;;;;;;7.28;3.63;;;18.70;73.60;;;;;;6185249;23;20017;-81
2023/06/13 06:24:44;;;;;;;7.85;3.53;;;18.80;74.10;;;;;;6184341;23;20072;-81
2023/06/13 06:27:13;;;;;;;7.45;3.33;;;18.80;74.10;;;;;;6159124;23;20017;-82
2023/06/13 06:29:39;;;;;;;6.75;3.20;;;18.90;75.20;;;;;;6185513;23;20017;-82
2023/06/13 06:32:06;;;;;;;5.95;3.40;;;18.90;74.80;;;;;;6158045;23;20060;-82
2023/06/13 06:34:32;;;;;;;7.90;3.25;;;19.00;73.50;;;;;;6159087;23;20024;-82
2023/06/13 06:36:58;;;;;;;8.25;3.30;;;19.10;73.60;;;;;;6158243;23;20449;-82
2023/06/13 06:39:24;;;;;;;8.48;3.55;;;19.20;74.00;;;;;;6158966;23;20065;-82
2023/06/13 06:41:50;;;;;;;5.43;3.10;;;19.20;74.50;;;;;;6185538;23;20009;-82
2023/06/13 06:44:15;;;;;;;5.97;3.10;;;19.30;74.90;;;;;;6184767;23;20076;-82
2023/06/13 06:46:41;;;;;;;6.97;3.10;;;19.40;74.90;;;;;;6184816;23;20009;-83
2023/06/13 06:49:07;;;;;;;6.03;3.42;;;19.50;74.50;;;;;;6185293;23;20442;-82
2023/06/13 06:51:33;;;;;;;9.27;3.38;;;19.60;74.20;;;;;;6184547;23;20144;-82
2023/06/13 06:53:59;;;;;;;5.18;3.05;;;19.70;73.80;;;;;;6185320;23;20048;-83
2023/06/13 06:56:25;;;;;;;6.63;3.15;;;19.80;73.50;;;;;;6159104;23;20449;-82
2023/06/13 06:58:51;;;;;;;5.82;2.97;;;19.90;73.10;;;;;;6184113;23;20031;-82
2023/06/13 07:01:18;;;;;;;6.97;2.97;;;20.00;72.70;;;;;;6159136;23;20045;-82
2023/06/13 07:03:44;;;;;;;7.18;3.17;;;20.10;72.30;;;;;;6158466;23;20021;-82
2023/06/13 07:06:11;;;;;;;7.80;2.90;;;20.20;71.90;;;;;;6184463;23;20437;-82
2023/06/13 07:08:37;;;;;;;5.18;2.70;;;20.20;71.50;;;;;;6158146;23;20013;-82
2023/06/13 07:11:03;;;;;;;6.53;3.17;;;20.30;71.30;;;;;;6185744;23;20017;-82
2023/06/13 07:13:29;;;;;;;5.50;2.80;;;20.40;71.00;;;;;;6184343;23;20047;-82
2023/06/13 07:15:55;;;;;;;5.78;2.65;;;20.50;71.30;;;;;;6158593;23;20456;-82
2023/06/13 07:18:21;;;;;;;5.18;2.50;;;20.60;71.30;;;;;;6185414;23;20020;-82
2023/06/13 07:20:47;;;;;;;5.68;3.05;;;20.70;71.10;;;;;;6184123;23;20370;-82
2023/06/13 07:23:12;;;;;;;5.65;2.60;;;20.80;70.40;;;;;;6185475;23;20020;-81
2023/06/13 07:25:41;;;;;;;4.40;2.78;;;20.90;70.20;;;;;;6184819;23;20027;-82
2023/06/13 07:28:07;;;;;;;5.80;3.10;;;21.00;69.30;;;;;;6184480;23;20345;-82
2023/06/13 07:30:32;;;;;;;5.55;2.60;;;21.00;69.40;;;;;;6158489;23;20064;-83
2023/06/13 07:32:58;;;;;;;6.15;2.70;;;21.20;69.20;;;;;;6158529;23;20025;-82
2023/06/13 07:35:24;;;;;;;4.63;2.75;;;21.20;69.30;;;;;;6157908;23;20099;-83
2023/06/13 07:37:55;;;;;;;5.47;2.63;;;21.30;68.40;;;;;;6186059;23;20326;-83
2023/06/13 07:40:21;;;;;;;4.97;2.90;;;21.40;68.30;;;;;;6159723;23;20024;-83
2023/06/13 07:42:50;;;;;;;8.55;3.05;;;21.50;67.30;;;;;;6160236;23;20083;-83
2023/06/13 07:45:16;;;;;;;5.18;2.63;;;21.60;65.70;;;;;;6160773;23;20013;-81
2023/06/13 07:47:42;;;;;;;8.27;2.70;;;21.70;66.50;;;;;;6159297;23;20435;-82
2023/06/13 07:50:08;;;;;;;6.70;2.95;;;21.80;65.40;;;;;;6187098;23;20452;-82
2023/06/13 07:52:34;;;;;;;5.50;2.40;;;21.80;66.70;;;;;;6186623;23;20028;-82
2023/06/13 07:54:59;;;;;;;8.40;2.78;;;21.90;67.10;;;;;;6159727;23;20013;-81
2023/06/13 07:57:25;;;;;;;5.47;2.58;;;22.00;66.70;;;;;;6160294;23;20047;-80
2023/06/13 07:59:51;;;;;;;5.63;2.92;;;22.10;64.10;;;;;;6186333;23;20108;-83
2023/06/13 08:02:16;;;;;;;4.70;2.40;;;22.20;65.90;;;;;;6185956;23;20013;-83
2023/06/13 08:04:42;;;;;;;7.15;2.58;;;22.30;66.00;;;;;;6186947;23;20091;-83
2023/06/13 08:07:09;;;;;;;4.82;2.63;;;22.40;64.50;;;;;;6187077;23;20009;-83
2023/06/13 08:09:34;;;;;;;5.18;2.50;;;22.50;63.80;;;;;;6185063;23;20017;-83
2023/06/13 08:12:00;;;;;;;5.28;2.38;;;22.50;64.30;;;;;;6160334;23;20048;-81
2023/06/13 08:14:26;;;;;;;6.32;2.30;;;22.70;65.90;;;;;;6160347;23;20031;-82
2023/06/13 08:16:52;;;;;;;6.03;2.50;;;22.70;63.80;;;;;;6185587;23;20594;-82
2023/06/13 08:19:17;;;;;;;6.88;2.50;;;22.80;62.50;;;;;;6186513;23;20032;-83
2023/06/13 08:21:45;;;;;;;5.10;2.50;;;22.90;63.70;;;;;;6159725;23;20016;-83
2023/06/13 08:24:11;;;;;;;5.85;2.50;;;23.00;64.30;;;;;;6159446;23;20371;-84
2023/06/13 08:26:38;;;;;;;6.55;2.50;;;23.10;62.10;;;;;;6185352;23;20055;-83
2023/06/13 08:29:04;;;;;;;4.38;2.20;;;23.20;62.80;;;;;;6186910;23;20017;-82
2023/06/13 08:31:31;;;;;;;4.18;2.17;;;23.30;62.70;;;;;;6159293;23;20013;-82
2023/06/13 08:34:00;;;;;;;7.13;2.20;;;23.40;63.00;;;;;;6186604;23;20020;-83
2023/06/13 08:36:27;;;;;;;4.18;2.25;;;23.50;62.30;;;;;;6185496;23;20028;-82
2023/06/13 08:38:57;;;;;;;5.13;2.30;;;23.60;62.40;;;;;;6159579;23;20349;-82
2023/06/13 08:41:24;;;;;;;5.32;2.63;;;23.60;60.70;;;;;;6186500;23;20449;-82
2023/06/13 08:43:50;;;;;;;4.47;2.40;;;23.70;58.30;;;;;;6184647;23;20020;-82
2023/06/13 08:46:16;;;;;;;5.72;2.40;;;23.80;59.10;;;;;;6159759;23;20346;-83
2023/06/13 08:48:42;;;;;;;5.68;2.38;;;23.90;60.60;;;;;;6185988;23;20091;-84
2023/06/13 08:51:13;;;;;;;5.57;2.30;;;23.90;59.00;;;;;;6186015;23;20052;-82
2023/06/13 08:53:47;;;;;;;4.70;2.42;;;24.00;60.00;;;;;;6186467;23;20028;-84
2023/06/13 08:56:13;;;;;;;6.80;2.38;;;24.10;60.30;;;;;;6159073;23;20028;-85
2023/06/13 08:58:41;;;;;;;4.88;2.10;;;24.20;61.00;;;;;;6184919;23;20017;-84
2023/06/13 09:01:07;;;;;;;4.35;2.40;;;24.30;60.20;;;;;;6159757;23;20060;-85
2023/06/13 09:03:35;;;;;;;6.32;2.20;;;24.40;59.50;;;;;;6186017;23;20021;-84
2023/06/13 09:06:04;;;;;;;6.57;2.30;;;24.50;58.80;;;;;;6158900;23;20453;-87
2023/06/13 09:08:31;;;;;;;4.18;2.50;;;24.50;59.20;;;;;;6159447;23;20017;-84
2023/06/13 09:10:59;;;;;;;5.25;2.35;;;24.60;59.00;;;;;;6159164;23;20334;-86
2023/06/13 09:13:25;;;;;;;6.57;2.78;;;24.70;54.80;;;;;;6184285;23;20446;-87
2023/06/13 09:15:51;;;;;;;6.80;2.50;;;24.70;54.90;;;;;;6158836;23;20028;-85
2023/06/13 09:18:18;;;;;;;4.00;2.10;;;24.80;52.50;;;;;;6158951;23;20020;-86
2023/06/13 09:20:44;;;;;;;7.40;2.45;;;24.90;55.00;;;;;;6185104;23;20079;-87
2023/06/13 09:23:15;;;;;;;4.53;2.30;;;24.90;54.90;;;;;;6159641;23;20449;-87
2023/06/13 09:25:43;;;;;;;5.95;2.28;;;25.00;56.70;;;;;;6158339;23;20016;-85
2023/06/13 09:28:28;;;;;;;6.32;2.60;;;25.10;57.10;;;;;;6185937;23;20449;-84
2023/06/13 09:30:54;;;;;;;6.30;2.45;;;25.10;55.50;;;;;;6159187;23;20025;-85
2023/06/13 09:33:23;;;;;;;5.38;2.45;;;25.20;55.60;;;;;;6185029;23;20020;-85
2023/06/13 09:35:50;;;;;;;5.78;2.50;;;25.30;55.50;;;;;;6159144;23;20028;-85
2023/06/13 09:38:23;;;;;;;3.70;2.08;;;25.40;51.60;;;;;;6159334;23;20016;-85
2023/06/13 09:40:54;;;;;;;4.70;2.30;;;25.40;53.80;;;;;;6158287;23;20025;-85
2023/06/13 09:43:21;;;;;;;5.78;2.40;;;25.60;55.50;;;;;;6159699;23;20068;-86
2023/06/13 09:45:51;;;;;;;6.47;2.40;;;25.60;53.90;;;;;;6158666;23;20067;-87
2023/06/13 09:48:20;;;;;;;6.28;2.30;;;25.70;54.80;;;;;;6184552;23;20100;-86
2023/06/13 09:50:46;;;;;;;4.93;2.40;;;25.70;56.50;;;;;;6158423;23;20017;-87
2023/06/13 09:53:12;;;;;;;6.40;2.40;;;25.80;56.70;;;;;;6185998;23;20346;-86
2023/06/13 09:55:38;;;;;;;6.03;2.10;;;25.90;57.40;;;;;;6183914;23;20017;-86
2023/06/13 09:58:04;;;;;;;4.30;2.30;;;26.00;58.00;;;;;;6185818;23;20024;-84
2023/06/13 10:00:30;;;;;;;5.68;2.47;;;26.10;55.90;;;;;;6158866;23;20040;-84
2023/06/13 10:02:56;;;;;;;4.85;2.40;;;26.10;53.50;;;;;;6184418;23;20025;-85
2023/06/13 10:05:22;;;;;;;7.15;2.60;;;26.20;55.60;;;;;;6159008;23;20017;-84
2023/06/13 10:07:48;;;;;;;5.95;2.55;;;26.30;54.80;;;;;;6185215;23;20056;-85
2023/06/13 10:10:14;;;;;;;4.60;2.47;;;26.30;56.30;;;;;;6159099;23;20013;-84
2023/06/13 10:12:47;;;;;;;4.38;2.20;;;26.40;55.10;;;;;;6158867;23;20088;-84
2023/06/13 10:15:30;;;;;;;6.65;2.55;;;26.40;55.40;;;;;;6184518;23;20023;-84
2023/06/13 10:17:59;;;;;;;5.57;2.53;;;26.60;55.20;;;;;;6184739;23;20017;-87
2023/06/13 10:20:28;;;;;;;7.15;2.65;;;26.60;54.40;;;;;;6159149;23;20025;-85
2023/06/13 10:22:55;;;;;;;5.32;2.72;;;26.70;52.50;;;;;;6157771;23;20017;-86
2023/06/13 10:25:27;;;;;;;4.97;2.58;;;26.70;50.30;;;;;;6158336;23;20013;-87
2023/06/13 10:27:55;;;;;;;4.40;2.45;;;26.80;52.70;;;;;;6158918;23;20024;-87
2023/06/13 10:30:21;;;;;;;5.43;2.38;;;26.90;53.70;;;;;;6157957;23;20013;-86
2023/06/13 10:33:15;;;;;;;4.95;2.50;;;27.00;55.40;;;;;;6158733;23;20025;-86
2023/06/13 10:35:40;;;;;;;4.78;2.30;;;27.10;54.90;;;;;;6158832;23;20013;-87
2023/06/13 10:38:21;;;;;;;5.15;2.60;;;27.20;56.20;;;;;;6184359;23;20507;-87
2023/06/13 10:41:24;;;;;;;8.18;2.63;;;27.20;55.20;;;;;;6185069;23;20048;-85
2023/06/13 10:44:01;;;;;;;7.63;2.90;;;27.30;52.60;;;;;;6184263;23;20100;-85
2023/06/13 10:46:28;;;;;;;8.40;2.67;;;27.30;53.10;;;;;;6158938;23;20017;-84
2023/06/13 10:48:53;;;;;;;7.82;3.17;;;27.40;54.90;;;;;;6158588;23;20100;-85
2023/06/13 10:51:25;;;;;;;4.07;2.47;;;27.40;53.70;;;;;;6157600;23;20457;-83
2023/06/13 10:54:02;;;;;;;6.28;2.78;;;27.50;54.50;;;;;;6152008;23;20401;-82
2023/06/13 10:56:30;;;;;;;4.43;2.50;;;27.60;53.10;;;;;;6159017;23;20017;-87
2023/06/13 10:59:08;;;;;;;5.45;2.67;;;27.60;54.70;;;;;;6183584;23;20080;-85
2023/06/13 11:01:35;;;;;;;6.07;2.63;;;27.70;54.50;;;;;;6158436;23;20081;-88
2023/06/13 11:04:13;;;;;;;7.18;2.80;;;27.80;54.70;;;;;;6158932;23;20017;-82
2023/06/13 11:06:40;;;;;;;6.30;2.47;;;27.80;49.30;;;;;;6158728;23;20020;-85
2023/06/13 11:09:21;;;;;;;5.80;2.45;;;27.90;52.10;;;;;;6185591;23;20024;-87
2023/06/13 11:11:46;;;;;;;7.25;2.60;;;27.90;52.40;;;;;;6158806;23;20486;-87
2023/06/13 11:14:12;;;;;;;6.18;2.53;;;28.00;52.90;;;;;;6160940;23;20020;-85
2023/06/13 11:16:39;;;;;;;6.05;2.60;;;28.00;52.10;;;;;;6160567;23;20476;-83
2023/06/13 11:19:12;;;;;;;6.88;2.30;;;28.00;52.60;;;;;;6159349;23;20099;-83
2023/06/13 11:21:58;;;;;;;5.28;2.58;;;28.10;53.10;;;;;;6187183;23;20087;-85
2023/06/13 11:24:24;;;;;;;6.45;2.90;;;28.10;48.60;;;;;;6160695;23;20017;-84
2023/06/13 11:26:51;;;;;;;4.55;2.53;;;28.10;48.50;;;;;;6159475;23;20501;-85
2023/06/13 11:29:16;;;;;;;4.57;2.85;;;28.20;51.80;;;;;;6187652;23;20017;-85
2023/06/13 11:31:42;;;;;;;4.18;2.33;;;28.20;50.50;;;;;;6160632;23;20339;-86
2023/06/13 11:34:16;;;;;;;5.45;2.50;;;28.20;53.10;;;;;;6160043;23;20068;-86
2023/06/13 11:36:44;;;;;;;5.28;2.60;;;28.30;54.00;;;;;;6187253;23;20024;-86
2023/06/13 11:39:12;;;;;;;5.20;2.40;;;28.40;53.90;;;;;;6186967;23;20374;-87
2023/06/13 11:41:37;;;;;;;4.43;2.45;;;28.40;54.60;;;;;;6159269;23;20080;-86
2023/06/13 11:44:03;;;;;;;9.02;2.75;;;28.50;55.00;;;;;;6160528;23;20457;-87
2023/06/13 11:46:29;;;;;;;4.38;2.47;;;28.60;54.40;;;;;;6159934;23;20013;-85
2023/06/13 11:48:58;;;;;;;5.50;2.50;;;28.60;54.80;;;;;;6159823;23;20017;-84
2023/06/13 11:51:26;;;;;;;4.35;2.45;;;28.70;52.50;;;;;;6187465;23;20113;-86
2023/06/13 11:53:55;;;;;;;5.22;2.17;;;28.70;52.60;;;;;;6159476;23;20104;-84
2023/06/13 11:56:23;;;;;;;6.07;2.35;;;28.70;52.70;;;;;;6160590;23;20056;-83
2023/06/13 11:58:50;;;;;;;5.97;2.45;;;28.80;50.00;;;;;;6186516;23;20529;-84
2023/06/13 12:01:17;;;;;;;6.20;2.63;;;28.70;52.30;;;;;;6159350;23;20018;-85
2023/06/13 12:03:44;;;;;;;4.97;2.35;;;28.80;51.40;;;;;;6187055;23;20019;-85
2023/06/13 12:06:11;;;;;;;4.38;2.10;;;28.90;53.10;;;;;;6187203;23;20041;-84
2023/06/13 12:08:41;;;;;;;6.45;2.53;;;29.00;54.50;;;;;;6159265;23;20481;-84
2023/06/13 12:11:08;;;;;;;5.82;2.80;;;29.10;50.60;;;;;;6185888;23;20140;-84
2023/06/13 12:13:34;;;;;;;5.75;2.53;;;29.10;51.10;;;;;;6159687;23;20013;-85
2023/06/13 12:16:00;;;;;;;5.15;2.35;;;29.10;49.90;;;;;;6158890;23;20009;-84
2023/06/13 12:18:29;;;;;;;7.70;2.47;;;29.10;51.80;;;;;;6160090;23;20084;-85
2023/06/13 12:20:57;;;;;;;4.25;2.20;;;29.10;49.20;;;;;;6186373;23;20020;-84
2023/06/13 12:23:30;;;;;;;5.22;2.47;;;29.10;51.70;;;;;;6185743;23;20017;-84
2023/06/13 12:25:57;;;;;;;6.32;2.40;;;29.20;52.10;;;;;;6147968;23;20021;-85
2023/06/13 12:28:23;;;;;;;6.78;2.80;;;29.20;51.50;;;;;;6186930;23;20020;-84
2023/06/13 12:30:50;;;;;;;6.22;2.50;;;29.20;47.10;;;;;;6158944;23;20648;-85
2023/06/13 12:33:19;;;;;;;3.80;2.60;;;29.30;51.30;;;;;;6159969;23;20120;-85
2023/06/13 12:35:53;;;;;;;5.35;2.50;;;29.30;52.70;;;;;;6185120;23;20009;-84
2023/06/13 12:38:25;;;;;;;5.95;2.50;;;29.30;51.90;;;;;;6159829;23;20013;-84
2023/06/13 12:40:51;;;;;;;8.27;2.63;;;29.30;51.30;;;;;;6186187;23;20096;-84
2023/06/13 12:43:26;;;;;;;5.18;2.20;;;29.40;52.80;;;;;;6159170;23;20092;-84
2023/06/13 12:45:55;;;;;;;7.50;2.53;;;29.40;53.50;;;;;;6186040;23;20017;-84
2023/06/13 12:48:21;;;;;;;4.45;2.60;;;29.50;53.80;;;;;;6159893;23;20124;-84
2023/06/13 12:50:47;;;;;;;5.45;2.33;;;29.50;53.10;;;;;;6185478;23;20457;-84
2023/06/13 12:53:19;;;;;;;3.92;2.42;;;29.60;53.80;;;;;;6186528;23;20017;-84